Time;durP1;ratioP1;P1;durP2;ratioP2;P2;SDS_P1;SDS_P2;PMS_P1;PMS_P2;Temp;Humidity;BMP_temperature;BMP_pressure;BME280_temperature;BME280_humidity;BME280_pressure;Samples;Min_cycle;Max_cycle;Signal;HPM_P1;HPM_P2
2022/11/04 00:01:58;;;;;;;4.93;4.20;;;10.90;40.00;;;;;;5053709;28;20423;-74
2022/11/04 00:04:25;;;;;;;5.87;4.30;;;10.90;46.80;;;;;;5051790;28;20466;-75
2022/11/04 00:06:52;;;;;;;8.10;3.60;;;10.90;44.00;;;;;;5051907;28;20448;-75
2022/11/04 00:09:20;;;;;;;8.00;4.30;;;10.90;55.80;;;;;;5052365;28;20397;-75
2022/11/04 00:14:32;;;;;;;4.40;3.80;;;10.90;68.50;;;;;;5052806;28;20428;-75
2022/11/04 00:33:24;;;;;;;12.80;4.60;;;10.80;42.90;;;;;;5053417;28;20522;-73
2022/11/04 00:33:49;;;;;;;9.70;4.40;;;10.80;47.50;;;;;;5052237;28;20751;-74
2022/11/04 00:36:15;;;;;;;5.43;3.80;;;10.90;48.70;;;;;;5053110;28;20914;-74
2022/11/04 00:38:41;;;;;;;4.00;3.70;;;10.90;44.30;;;;;;5052232;28;20465;-74
2022/11/04 00:41:24;;;;;;;7.17;4.03;;;10.90;68.40;;;;;;5053110;28;20465;-74
2022/11/04 00:43:51;;;;;;;13.07;4.63;;;10.90;64.40;;;;;;5051851;28;20167;-74
2022/11/04 00:46:17;;;;;;;9.83;5.43;;;10.90;66.70;;;;;;5053051;28;20388;-74
2022/11/04 00:48:43;;;;;;;3.97;3.57;;;11.00;67.10;;;;;;5050316;28;20440;-75
2022/11/04 00:51:08;;;;;;;4.53;3.80;;;11.00;64.90;;;;;;5052886;28;20207;-74
2022/11/04 00:53:34;;;;;;;8.90;3.80;;;11.00;62.40;;;;;;5051830;28;20177;-75
2022/11/04 00:55:59;;;;;;;10.73;4.43;;;11.00;43.40;;;;;;5052364;28;20213;-75
2022/11/04 00:58:27;;;;;;;5.90;4.53;;;11.00;42.20;;;;;;5067916;28;20179;-74
2022/11/04 01:00:52;;;;;;;5.83;3.80;;;11.00;71.60;;;;;;5051607;28;20304;-75
2022/11/04 01:03:18;;;;;;;8.83;4.20;;;11.00;70.30;;;;;;5052661;28;20921;-79
2022/11/04 01:05:44;;;;;;;8.43;4.30;;;11.00;68.40;;;;;;5051315;28;20719;-75
2022/11/04 01:08:09;;;;;;;4.20;3.83;;;11.00;74.90;;;;;;5067836;28;20222;-73
2022/11/04 01:10:43;;;;;;;4.20;3.70;;;11.10;76.10;;;;;;5052898;28;20175;-75
2022/11/04 01:13:09;;;;;;;6.40;4.20;;;11.10;71.40;;;;;;5053005;28;20167;-74
2022/11/04 01:15:36;;;;;;;8.07;4.80;;;11.10;75.70;;;;;;5051039;28;20453;-74
2022/11/04 01:18:02;;;;;;;6.70;4.77;;;11.10;81.50;;;;;;5051584;28;20418;-75
2022/11/04 01:20:27;;;;;;;8.77;5.50;;;11.10;85.90;;;;;;5052716;28;20757;-73
2022/11/04 01:22:53;;;;;;;6.63;4.80;;;11.10;90.20;;;;;;5052970;28;20387;-73
2022/11/04 01:25:19;;;;;;;4.70;4.30;;;11.00;79.10;;;;;;5050904;28;20583;-75
2022/11/04 01:27:44;;;;;;;6.17;4.20;;;11.00;82.50;;;;;;5055321;28;20249;-75
2022/11/04 01:30:10;;;;;;;6.17;4.33;;;11.00;92.40;;;;;;5055883;28;20205;-75
2022/11/04 01:32:36;;;;;;;4.83;4.30;;;11.00;92.40;;;;;;5055169;28;20288;-75
2022/11/04 01:35:02;;;;;;;11.10;4.90;;;11.00;96.20;;;;;;5054196;28;20464;-73
2022/11/04 01:37:28;;;;;;;5.83;4.50;;;11.00;92.50;;;;;;5056186;28;20198;-76
2022/11/04 01:39:53;;;;;;;11.23;4.60;;;10.90;94.10;;;;;;5056473;28;20171;-73
2022/11/04 01:42:22;;;;;;;11.60;5.87;;;11.00;99.90;;;;;;5056326;28;20182;-75
2022/11/04 01:44:51;;;;;;;4.90;4.13;;;11.00;99.90;;;;;;5054593;28;20187;-73
2022/11/04 01:47:39;;;;;;;6.60;4.97;;;11.00;99.90;;;;;;5055978;28;20443;-75
2022/11/04 01:50:14;;;;;;;6.07;4.87;;;10.90;99.90;;;;;;5056118;28;20413;-73
2022/11/04 01:52:55;;;;;;;7.10;4.53;;;11.00;99.90;;;;;;5055230;28;20450;-74
2022/11/04 01:55:30;;;;;;;6.33;5.00;;;11.00;99.90;;;;;;5054800;28;20849;-73
2022/11/04 01:58:01;;;;;;;5.07;3.87;;;10.90;97.80;;;;;;5054016;28;20413;-77
2022/11/04 02:00:27;;;;;;;7.83;4.60;;;10.90;99.90;;;;;;5036092;28;20398;-73
2022/11/04 02:02:57;;;;;;;4.50;4.10;;;11.00;99.90;;;;;;5036056;28;20408;-73
2022/11/04 02:05:23;;;;;;;6.10;4.70;;;10.90;99.90;;;;;;5034973;28;20632;-74
2022/11/04 02:07:53;;;;;;;4.53;3.90;;;10.90;99.90;;;;;;5035764;28;20375;-73
2022/11/04 02:10:22;;;;;;;6.30;5.40;;;10.90;99.90;;;;;;5035466;28;20159;-73
2022/11/04 02:12:48;;;;;;;9.13;5.43;;;10.90;99.90;;;;;;5043377;28;20439;-73
2022/11/04 02:15:14;;;;;;;6.20;4.17;;;10.90;99.90;;;;;;5054138;28;20432;-75
2022/11/04 02:17:59;;;;;;;5.57;4.73;;;10.90;99.90;;;;;;5055731;28;20794;-76
2022/11/04 02:20:36;;;;;;;6.07;5.07;;;10.90;99.90;;;;;;5055664;28;21012;-75
2022/11/04 02:23:21;;;;;;;9.17;5.10;;;10.90;99.90;;;;;;5055761;28;20372;-75
2022/11/04 02:26:14;;;;;;;5.60;3.93;;;10.90;99.90;;;;;;5052557;28;20433;-75
2022/11/04 02:28:58;;;;;;;5.57;4.70;;;11.00;99.90;;;;;;5055065;28;20379;-75
2022/11/04 02:31:33;;;;;;;8.20;4.43;;;11.00;99.90;;;;;;5055426;28;20476;-73
2022/11/04 02:34:36;;;;;;;6.53;4.17;;;10.90;99.90;;;;;;5054327;28;20408;-75
2022/11/04 02:37:23;;;;;;;5.67;4.90;;;10.90;99.90;;;;;;5032954;28;20437;-74
2022/11/04 02:40:05;;;;;;;8.27;5.23;;;10.90;99.90;;;;;;5054433;28;20424;-74
2022/11/04 02:42:58;;;;;;;9.00;5.70;;;10.90;99.90;;;;;;5054614;28;20509;-72
2022/11/04 02:45:33;;;;;;;7.53;5.30;;;10.90;99.90;;;;;;5042806;28;20428;-75
2022/11/04 02:48:11;;;;;;;7.03;4.37;;;11.00;99.90;;;;;;5054935;28;20475;-74
2022/11/04 02:50:50;;;;;;;5.80;5.23;;;11.00;99.90;;;;;;5054216;28;20443;-75
2022/11/04 02:53:30;;;;;;;7.90;4.70;;;10.90;99.90;;;;;;5055040;28;20455;-75
2022/11/04 02:55:57;;;;;;;6.07;4.27;;;10.90;99.90;;;;;;5034144;28;20438;-76
2022/11/04 02:58:40;;;;;;;7.20;4.90;;;10.90;99.90;;;;;;5034848;28;20950;-73
2022/11/04 03:01:08;;;;;;;7.00;5.00;;;10.90;99.90;;;;;;5043155;28;20433;-76
2022/11/04 03:03:39;;;;;;;6.17;4.80;;;10.90;99.90;;;;;;5054278;28;20408;-76
2022/11/04 03:06:07;;;;;;;6.53;5.90;;;10.90;99.90;;;;;;5054336;28;20424;-75
2022/11/04 03:08:37;;;;;;;6.60;4.97;;;10.90;99.90;;;;;;5054588;28;20380;-73
2022/11/04 03:11:33;;;;;;;8.20;6.03;;;10.90;99.90;;;;;;5053922;28;20534;-73
2022/11/04 03:14:06;;;;;;;7.33;4.97;;;10.90;99.90;;;;;;5016221;28;20419;-74
2022/11/04 03:16:46;;;;;;;8.53;4.70;;;10.80;99.90;;;;;;5034580;28;20409;-74
2022/11/04 03:19:24;;;;;;;9.10;4.90;;;10.80;99.90;;;;;;5049104;28;20819;-73
2022/11/04 03:21:56;;;;;;;9.40;5.00;;;10.80;99.90;;;;;;5044464;28;20841;-73
2022/11/04 03:24:22;;;;;;;6.60;5.60;;;10.70;99.90;;;;;;5048030;28;20516;-76
2022/11/04 03:27:21;;;;;;;8.47;4.63;;;10.70;99.90;;;;;;5052192;28;20885;-73
2022/11/04 03:29:58;;;;;;;8.33;5.20;;;10.70;99.90;;;;;;5053071;28;20212;-77
2022/11/04 03:32:39;;;;;;;6.03;5.40;;;10.70;99.90;;;;;;5034139;28;20508;-73
2022/11/04 03:35:06;;;;;;;5.43;4.93;;;10.80;99.90;;;;;;5033378;28;20388;-73
2022/11/04 03:37:33;;;;;;;5.40;4.70;;;10.80;99.90;;;;;;5034166;28;20402;-77
2022/11/04 03:39:59;;;;;;;10.43;5.60;;;10.80;99.90;;;;;;5034327;28;20377;-79
2022/11/04 03:42:27;;;;;;;6.90;5.37;;;10.80;99.90;;;;;;5053446;28;20424;-73
2022/11/04 03:44:55;;;;;;;10.00;4.93;;;10.80;99.90;;;;;;5053185;28;20380;-76
2022/11/04 03:47:26;;;;;;;6.90;5.23;;;10.80;99.90;;;;;;5053804;28;20395;-77
2022/11/04 03:50:18;;;;;;;7.07;6.17;;;10.80;99.90;;;;;;5053066;28;20550;-77
2022/11/04 03:52:43;;;;;;;7.10;5.90;;;10.80;99.90;;;;;;5025504;28;20499;-73
2022/11/04 03:55:11;;;;;;;10.50;5.60;;;10.80;99.90;;;;;;5032928;28;20895;-74
2022/11/04 03:57:51;;;;;;;6.77;5.43;;;10.80;99.90;;;;;;5033702;28;20187;-73
2022/11/04 04:00:20;;;;;;;5.80;4.60;;;10.80;99.90;;;;;;5034426;28;20477;-77
2022/11/04 04:02:58;;;;;;;7.47;5.30;;;10.80;99.90;;;;;;5053471;28;20412;-77
2022/11/04 04:05:33;;;;;;;11.13;6.50;;;10.80;99.90;;;;;;5052691;28;20384;-78
2022/11/04 04:08:16;;;;;;;10.20;5.20;;;10.80;99.90;;;;;;5053583;28;20438;-73
2022/11/04 04:11:06;;;;;;;9.40;5.90;;;10.80;99.90;;;;;;5049768;28;20494;-74
2022/11/04 04:13:51;;;;;;;6.60;5.43;;;10.90;99.90;;;;;;5053434;28;20372;-79
2022/11/04 04:16:33;;;;;;;6.97;5.80;;;10.80;99.90;;;;;;5053408;28;20429;-79
2022/11/04 04:19:12;;;;;;;8.47;5.90;;;10.80;99.90;;;;;;5053449;28;20392;-74
2022/11/04 04:21:51;;;;;;;7.53;5.37;;;10.80;99.90;;;;;;5052271;28;20411;-73
2022/11/04 04:29:51;;;;;;;9.10;6.63;;;10.90;99.90;;;;;;5053275;28;20766;-73
2022/11/04 04:32:18;;;;;;;9.90;6.30;;;10.90;99.90;;;;;;5052446;28;20493;-80
2022/11/04 04:34:44;;;;;;;8.70;6.53;;;10.80;99.90;;;;;;5051147;28;20391;-73
2022/11/04 04:37:19;;;;;;;6.57;5.93;;;10.80;99.90;;;;;;5053100;28;20491;-74
2022/11/04 04:45:36;;;;;;;7.67;5.63;;;10.80;99.90;;;;;;5052258;28;20416;-79
2022/11/04 04:48:02;;;;;;;9.23;6.50;;;10.80;99.90;;;;;;5052385;28;20442;-73
2022/11/04 04:50:35;;;;;;;6.90;6.23;;;10.90;99.90;;;;;;5052283;28;20437;-79
2022/11/04 04:53:02;;;;;;;7.63;5.87;;;10.90;99.90;;;;;;5052972;28;20933;-79
2022/11/04 04:55:30;;;;;;;11.70;6.57;;;10.80;99.90;;;;;;5052160;28;20741;-80
2022/11/04 04:57:56;;;;;;;7.20;5.93;;;10.80;99.90;;;;;;5053061;28;20473;-79
2022/11/04 05:00:22;;;;;;;7.87;6.10;;;10.90;99.90;;;;;;5052074;28;20441;-79
2022/11/04 05:02:49;;;;;;;6.13;5.63;;;10.90;99.90;;;;;;5055473;28;20976;-74
2022/11/04 05:05:15;;;;;;;8.03;5.70;;;11.00;99.90;;;;;;5055945;28;20401;-72
2022/11/04 05:07:41;;;;;;;7.97;6.90;;;10.90;99.90;;;;;;5057111;28;20369;-80
2022/11/04 05:10:12;;;;;;;6.87;6.17;;;11.00;99.90;;;;;;5056063;28;20425;-73
2022/11/04 05:15:24;;;;;;;8.70;6.50;;;11.00;99.90;;;;;;5055195;28;20379;-74
2022/11/04 05:17:57;;;;;;;10.40;6.67;;;11.00;99.90;;;;;;5056357;28;20437;-78
2022/11/04 05:20:23;;;;;;;10.40;7.73;;;11.00;99.90;;;;;;5055299;28;20410;-73
2022/11/04 05:22:50;;;;;;;7.90;6.37;;;11.10;99.90;;;;;;5056835;28;20827;-73
2022/11/04 05:25:15;;;;;;;11.17;6.53;;;11.00;99.90;;;;;;5055518;28;20410;-76
2022/11/04 05:27:41;;;;;;;8.30;7.10;;;11.00;99.90;;;;;;5056730;28;20766;-74
2022/11/04 05:30:07;;;;;;;9.40;8.17;;;11.10;99.90;;;;;;5055742;28;20400;-80
2022/11/04 05:32:33;;;;;;;9.87;7.80;;;11.10;1.00;;;;;;5056425;28;20272;-73
2022/11/04 05:34:59;;;;;;;8.87;7.33;;;11.10;1.00;;;;;;5055199;28;20848;-78
2022/11/04 05:37:25;;;;;;;9.87;7.00;;;11.10;1.00;;;;;;5056276;28;20188;-80
2022/11/04 05:39:51;;;;;;;10.77;7.33;;;11.10;1.00;;;;;;5055505;28;20254;-73
2022/11/04 05:42:16;;;;;;;11.63;7.37;;;11.10;1.00;;;;;;5055532;28;20840;-74
2022/11/04 05:44:42;;;;;;;9.53;7.17;;;11.10;1.00;;;;;;5055488;28;20433;-72
2022/11/04 05:47:08;;;;;;;14.20;7.70;;;11.10;1.00;;;;;;5056127;28;20274;-74
2022/11/04 05:49:34;;;;;;;9.50;7.40;;;11.20;1.00;;;;;;5055180;28;20187;-79
2022/11/04 05:51:59;;;;;;;7.20;6.50;;;11.20;1.00;;;;;;5055714;28;20199;-79
2022/11/04 05:54:34;;;;;;;8.73;6.80;;;11.10;1.00;;;;;;5055312;28;20698;-79
2022/11/04 05:56:59;;;;;;;8.43;6.20;;;11.10;1.00;;;;;;5055899;28;20182;-73
2022/11/04 05:59:25;;;;;;;7.23;5.70;;;11.10;1.00;;;;;;5054405;28;20403;-79
2022/11/04 06:01:50;;;;;;;8.10;6.60;;;11.20;1.00;;;;;;5054857;28;20603;-79
2022/11/04 06:04:17;;;;;;;6.97;6.23;;;11.20;1.00;;;;;;5054903;28;20190;-81
2022/11/04 06:06:47;;;;;;;8.17;5.10;;;11.10;1.00;;;;;;5055857;28;20187;-72
2022/11/04 06:09:12;;;;;;;6.27;5.77;;;11.10;1.00;;;;;;5054872;28;20405;-80
2022/11/04 06:11:38;;;;;;;6.50;5.90;;;11.00;1.00;;;;;;5055119;28;20456;-74
2022/11/04 06:14:04;;;;;;;6.70;5.63;;;11.00;1.00;;;;;;5053649;28;20200;-73
2022/11/04 06:16:30;;;;;;;6.10;5.50;;;10.90;1.00;;;;;;5055651;28;20887;-73
2022/11/04 06:18:56;;;;;;;6.97;6.27;;;10.90;1.00;;;;;;5055759;28;20372;-73
2022/11/04 06:21:24;;;;;;;5.50;4.97;;;10.90;1.00;;;;;;5054939;28;20599;-80
2022/11/04 06:23:51;;;;;;;5.73;5.20;;;10.90;1.00;;;;;;5054630;28;20663;-80
2022/11/04 06:26:17;;;;;;;4.30;4.00;;;10.90;1.00;;;;;;5055275;28;20421;-73
2022/11/04 06:28:43;;;;;;;4.57;3.80;;;10.80;1.00;;;;;;5054178;28;20790;-74
2022/11/04 06:31:11;;;;;;;4.93;4.53;;;10.80;1.00;;;;;;5054515;28;20277;-73
2022/11/04 06:33:37;;;;;;;3.93;3.63;;;10.80;1.00;;;;;;5054639;28;20221;-79
2022/11/04 06:36:05;;;;;;;5.83;3.77;;;10.80;1.00;;;;;;5055262;28;20417;-73
2022/11/04 06:38:32;;;;;;;4.40;4.10;;;10.70;1.00;;;;;;5054466;28;20790;-80
2022/11/04 06:40:58;;;;;;;3.10;2.80;;;10.80;1.00;;;;;;5054499;28;20443;-74
2022/11/04 06:43:24;;;;;;;2.80;2.60;;;10.70;1.00;;;;;;5054030;28;20496;-74
2022/11/04 06:45:58;;;;;;;3.47;2.47;;;10.80;99.90;;;;;;5054224;28;20500;-74
2022/11/04 06:48:24;;;;;;;3.00;2.50;;;10.80;99.90;;;;;;5054665;28;20534;-82
2022/11/04 06:50:50;;;;;;;2.43;2.23;;;10.90;99.90;;;;;;5054155;28;20435;-73
2022/11/04 06:53:16;;;;;;;2.90;2.70;;;10.90;99.90;;;;;;5054972;28;20378;-80
2022/11/04 06:55:42;;;;;;;2.80;2.60;;;10.80;99.90;;;;;;5056855;28;20513;-80
2022/11/04 06:58:08;;;;;;;2.20;1.87;;;10.80;99.90;;;;;;5074687;28;20166;-72
2022/11/04 07:00:34;;;;;;;2.17;2.00;;;10.80;99.90;;;;;;5055693;28;20916;-73
2022/11/04 07:02:59;;;;;;;1.93;1.83;;;10.90;99.90;;;;;;5054125;28;20451;-80
2022/11/04 07:05:25;;;;;;;2.67;2.00;;;10.90;99.90;;;;;;5052531;28;20178;-81
2022/11/04 07:07:51;;;;;;;2.37;1.90;;;10.90;99.90;;;;;;5054585;28;20175;-80
2022/11/04 07:10:17;;;;;;;4.17;1.77;;;10.90;99.90;;;;;;5052966;28;20445;-73
2022/11/04 07:12:43;;;;;;;3.50;1.70;;;10.90;99.90;;;;;;5054879;28;20678;-73
2022/11/04 07:15:09;;;;;;;1.70;1.60;;;10.90;99.90;;;;;;5053039;28;20182;-79
2022/11/04 07:17:35;;;;;;;1.80;1.70;;;10.90;99.90;;;;;;5054599;28;20430;-73
2022/11/04 07:20:01;;;;;;;2.00;1.90;;;10.80;99.90;;;;;;5053513;28;20449;-81
2022/11/04 07:22:27;;;;;;;1.70;1.60;;;10.80;99.90;;;;;;5053986;28;20189;-82
2022/11/04 07:24:53;;;;;;;3.93;1.97;;;10.90;99.90;;;;;;5054372;28;20401;-74
2022/11/04 07:27:18;;;;;;;3.57;1.80;;;10.90;99.90;;;;;;5055435;28;20270;-74
2022/11/04 07:29:44;;;;;;;3.03;1.80;;;10.90;99.90;;;;;;5053004;28;20174;-80
2022/11/04 07:32:10;;;;;;;2.33;1.90;;;10.90;99.90;;;;;;5053425;28;20229;-74
2022/11/04 07:34:35;;;;;;;2.27;1.60;;;11.00;99.90;;;;;;5053426;28;20178;-81
2022/11/04 07:37:01;;;;;;;2.47;1.60;;;11.00;99.90;;;;;;5052959;28;20201;-75
2022/11/04 07:39:27;;;;;;;2.00;1.80;;;11.00;99.90;;;;;;5053053;28;20254;-81
2022/11/04 07:41:52;;;;;;;1.97;1.77;;;11.00;99.90;;;;;;5053425;28;20266;-74
2022/11/04 07:44:18;;;;;;;2.80;1.83;;;11.10;99.90;;;;;;5053041;28;20197;-82
2022/11/04 07:46:44;;;;;;;3.20;1.67;;;11.10;99.90;;;;;;5053936;28;20178;-80
2022/11/04 07:49:10;;;;;;;2.50;1.60;;;11.10;99.90;;;;;;5053052;28;20175;-74
2022/11/04 07:51:36;;;;;;;1.93;1.83;;;11.10;99.90;;;;;;5053823;28;20442;-79
2022/11/04 07:54:01;;;;;;;2.33;1.47;;;11.10;99.90;;;;;;5052677;28;20628;-73
2022/11/04 07:56:27;;;;;;;7.43;1.93;;;11.10;99.90;;;;;;5053667;28;20214;-77
2022/11/04 07:58:53;;;;;;;7.13;1.43;;;11.20;99.90;;;;;;5052969;28;20647;-74
2022/11/04 08:01:24;;;;;;;1.93;1.80;;;11.20;99.90;;;;;;5053828;28;20297;-79
2022/11/04 08:03:51;;;;;;;2.43;2.20;;;11.20;99.90;;;;;;5051061;28;20666;-79
2022/11/04 08:06:19;;;;;;;2.50;1.60;;;11.20;99.90;;;;;;5053240;28;20422;-77
2022/11/04 08:08:44;;;;;;;1.50;1.40;;;11.20;99.90;;;;;;5053469;28;20389;-79
2022/11/04 08:11:16;;;;;;;1.80;1.70;;;11.20;99.90;;;;;;5053180;28;20528;-73
2022/11/04 08:13:42;;;;;;;2.23;2.03;;;11.20;99.90;;;;;;5051266;28;20938;-78
2022/11/04 08:16:12;;;;;;;2.00;1.80;;;11.20;99.90;;;;;;5052142;28;20515;-78
2022/11/04 08:18:39;;;;;;;4.70;2.50;;;11.20;99.90;;;;;;5053192;28;20163;-77
2022/11/04 08:21:05;;;;;;;2.07;1.97;;;11.20;99.90;;;;;;5053668;28;20384;-73
2022/11/04 08:23:31;;;;;;;1.77;1.30;;;11.10;99.90;;;;;;5052373;28;20457;-80
2022/11/04 08:25:58;;;;;;;1.83;1.73;;;11.20;99.90;;;;;;5051923;28;20423;-78
2022/11/04 08:28:24;;;;;;;1.97;1.70;;;11.20;99.90;;;;;;5051973;28;20398;-80
2022/11/04 08:30:56;;;;;;;2.03;1.73;;;11.20;99.90;;;;;;5053297;28;20404;-78
2022/11/04 08:33:27;;;;;;;2.23;1.93;;;11.30;99.90;;;;;;5051557;28;20421;-80
2022/11/04 08:35:54;;;;;;;3.23;2.13;;;11.30;99.90;;;;;;5052267;28;20479;-80
2022/11/04 08:38:20;;;;;;;2.17;1.83;;;11.30;99.90;;;;;;5051943;28;20384;-78
2022/11/04 08:40:46;;;;;;;2.60;1.90;;;11.30;99.90;;;;;;5051899;28;20771;-79
2022/11/04 08:43:12;;;;;;;3.80;1.90;;;11.30;99.90;;;;;;5050144;28;20206;-74
2022/11/04 08:45:40;;;;;;;5.90;1.83;;;11.40;99.90;;;;;;5052141;28;20421;-79
2022/11/04 08:48:05;;;;;;;1.80;1.70;;;11.40;99.90;;;;;;5051751;28;20175;-74
2022/11/04 08:50:31;;;;;;;2.33;1.90;;;11.40;99.90;;;;;;5052127;28;20940;-79
2022/11/04 08:52:57;;;;;;;6.80;2.43;;;11.40;99.90;;;;;;5051772;28;20213;-78
2022/11/04 08:55:23;;;;;;;5.13;1.87;;;11.50;99.90;;;;;;5052234;28;20501;-75
2022/11/04 08:57:49;;;;;;;2.70;2.13;;;11.50;99.90;;;;;;5053083;28;20398;-80
2022/11/04 09:00:15;;;;;;;2.20;2.00;;;11.50;99.90;;;;;;5053039;28;20163;-75
2022/11/04 09:02:42;;;;;;;2.30;2.20;;;11.50;99.90;;;;;;5051324;28;20429;-75
2022/11/04 09:05:08;;;;;;;4.03;2.17;;;11.40;99.90;;;;;;5050993;28;20414;-78
2022/11/04 09:07:36;;;;;;;5.20;2.50;;;11.40;99.90;;;;;;5052888;28;20405;-73
2022/11/04 09:10:05;;;;;;;2.93;2.73;;;11.40;99.90;;;;;;5068314;28;20388;-75
2022/11/04 09:12:31;;;;;;;2.37;2.17;;;11.40;99.90;;;;;;5052011;28;20424;-75
2022/11/04 09:14:56;;;;;;;2.30;2.20;;;11.40;99.90;;;;;;5049482;28;20420;-79
2022/11/04 09:17:22;;;;;;;3.60;2.30;;;11.40;99.90;;;;;;5068491;28;20197;-76
2022/11/04 09:19:48;;;;;;;2.10;2.00;;;11.50;99.90;;;;;;5053021;28;20245;-75
2022/11/04 09:22:19;;;;;;;2.20;2.00;;;11.50;99.90;;;;;;5051221;28;20547;-76
2022/11/04 09:24:45;;;;;;;2.30;2.10;;;11.50;99.90;;;;;;5033722;28;20248;-75
2022/11/04 09:27:11;;;;;;;2.10;1.90;;;11.50;99.90;;;;;;5052793;28;20939;-76
2022/11/04 09:29:40;;;;;;;6.40;2.07;;;11.50;99.90;;;;;;5052732;28;20765;-79
2022/11/04 09:32:07;;;;;;;1.97;1.87;;;11.60;99.90;;;;;;5046645;28;20211;-79
2022/11/04 09:34:33;;;;;;;2.80;2.27;;;11.50;99.90;;;;;;5051711;28;20412;-74
2022/11/04 09:36:59;;;;;;;7.30;2.70;;;11.50;99.90;;;;;;5050870;28;20836;-74
2022/11/04 09:39:25;;;;;;;2.63;2.43;;;11.40;99.90;;;;;;5051135;28;20401;-74
2022/11/04 09:41:57;;;;;;;3.10;2.00;;;11.40;99.90;;;;;;5051752;28;20175;-73
2022/11/04 09:44:32;;;;;;;4.30;2.27;;;11.50;99.90;;;;;;5051710;28;20368;-77
2022/11/04 09:47:01;;;;;;;3.37;2.10;;;11.60;99.90;;;;;;5051605;28;20479;-78
2022/11/04 09:49:32;;;;;;;2.17;2.00;;;11.70;99.90;;;;;;5054428;28;20517;-76
2022/11/04 09:52:00;;;;;;;3.60;2.30;;;11.80;99.90;;;;;;5055322;28;21825;-79
2022/11/04 09:54:37;;;;;;;2.30;2.13;;;11.80;99.90;;;;;;5055289;28;20903;-79
2022/11/04 09:57:04;;;;;;;4.17;1.93;;;11.90;99.90;;;;;;5055996;28;20412;-78
2022/11/04 09:59:35;;;;;;;1.87;1.77;;;11.80;99.90;;;;;;5054416;28;21003;-77
2022/11/04 10:02:00;;;;;;;6.63;1.73;;;11.90;99.90;;;;;;5055986;28;20384;-74
2022/11/04 10:04:34;;;;;;;3.77;2.50;;;12.00;99.90;;;;;;5054788;28;20900;-78
2022/11/04 10:07:29;;;;;;;2.03;1.80;;;12.10;99.90;;;;;;5054183;28;20252;-77
2022/11/04 10:10:12;;;;;;;2.63;1.50;;;12.10;99.90;;;;;;5054915;28;20773;-77
2022/11/04 10:13:03;;;;;;;2.87;1.63;;;12.10;99.90;;;;;;5055802;28;20518;-73
2022/11/04 10:15:53;;;;;;;2.37;2.17;;;12.10;99.90;;;;;;5053647;28;20964;-74
2022/11/04 10:18:40;;;;;;;2.90;1.90;;;12.00;99.90;;;;;;5054360;28;20499;-77
2022/11/04 10:21:26;;;;;;;1.90;1.70;;;12.10;99.90;;;;;;5054620;28;20943;-77
2022/11/04 10:24:42;;;;;;;4.77;2.17;;;12.10;99.90;;;;;;5054586;28;20437;-77
2022/11/04 10:27:22;;;;;;;2.93;1.80;;;12.20;99.90;;;;;;4994253;28;20436;-73
2022/11/04 10:29:53;;;;;;;2.17;2.07;;;12.20;99.90;;;;;;5047795;28;20993;-75
2022/11/04 10:32:25;;;;;;;2.47;1.83;;;12.20;99.90;;;;;;5055325;28;20442;-76
2022/11/04 10:35:01;;;;;;;3.23;1.60;;;12.20;99.90;;;;;;5053241;28;20491;-77
2022/11/04 10:37:27;;;;;;;1.97;1.87;;;12.30;99.90;;;;;;5055349;28;20425;-76
2022/11/04 10:40:17;;;;;;;1.60;1.50;;;12.50;99.90;;;;;;5054395;28;20427;-76
2022/11/04 10:42:43;;;;;;;1.37;1.27;;;12.60;99.90;;;;;;5054156;28;20431;-75
2022/11/04 10:45:12;;;;;;;2.10;1.90;;;12.80;99.90;;;;;;5054240;28;20405;-76
2022/11/04 10:47:41;;;;;;;3.37;1.80;;;12.90;99.90;;;;;;5054094;28;20177;-77
2022/11/04 10:50:29;;;;;;;2.03;1.80;;;13.00;99.90;;;;;;5055188;28;20891;-78
2022/11/04 10:53:12;;;;;;;2.03;1.90;;;13.00;99.90;;;;;;5054599;28;20459;-73
2022/11/04 10:55:44;;;;;;;2.30;1.67;;;13.10;99.90;;;;;;5053069;28;20444;-75
2022/11/04 10:58:24;;;;;;;1.70;1.53;;;12.90;99.90;;;;;;5054129;28;20483;-72
2022/11/04 11:00:50;;;;;;;1.53;1.43;;;12.80;99.90;;;;;;5054104;28;20376;-76
2022/11/04 11:03:31;;;;;;;1.70;1.47;;;12.70;99.90;;;;;;5054552;28;20454;-73
2022/11/04 11:06:20;;;;;;;4.37;1.80;;;12.70;99.90;;;;;;5053842;28;20426;-74
2022/11/04 11:08:47;;;;;;;5.27;1.70;;;12.70;99.90;;;;;;5052885;28;20408;-76
2022/11/04 11:11:14;;;;;;;2.37;1.67;;;12.70;99.90;;;;;;5052140;28;20792;-76
2022/11/04 11:13:43;;;;;;;2.83;1.77;;;12.70;99.90;;;;;;5053559;28;20710;-74
2022/11/04 11:16:18;;;;;;;4.00;1.50;;;12.80;99.90;;;;;;5053188;28;20466;-76
2022/11/04 11:19:13;;;;;;;1.67;1.57;;;12.90;99.90;;;;;;5053492;28;20423;-74
2022/11/04 11:21:47;;;;;;;1.40;1.30;;;12.90;99.90;;;;;;5054344;28;20491;-74
2022/11/04 11:24:22;;;;;;;3.10;1.80;;;13.10;99.90;;;;;;5053411;28;20379;-73
2022/11/04 11:27:00;;;;;;;2.40;1.40;;;13.20;99.90;;;;;;5053066;28;20436;-74
2022/11/04 11:29:30;;;;;;;2.27;1.20;;;13.10;99.90;;;;;;5053375;28;20406;-76
2022/11/04 11:31:57;;;;;;;3.53;1.87;;;13.10;99.90;;;;;;5053756;28;20947;-77
2022/11/04 11:34:33;;;;;;;5.73;1.80;;;12.90;99.90;;;;;;5051673;28;20892;-74
2022/11/04 11:37:04;;;;;;;4.33;1.63;;;12.70;99.90;;;;;;5054070;28;20496;-74
2022/11/04 11:39:33;;;;;;;1.67;1.47;;;12.80;99.90;;;;;;5053275;28;20404;-76
2022/11/04 11:42:06;;;;;;;5.93;1.40;;;12.90;99.90;;;;;;5054128;28;20480;-74
2022/11/04 11:45:09;;;;;;;7.47;1.60;;;12.90;99.90;;;;;;5053217;28;20451;-76
2022/11/04 11:47:37;;;;;;;2.17;1.33;;;13.20;99.90;;;;;;5043436;28;20423;-77
2022/11/04 11:50:17;;;;;;;2.13;1.10;;;13.30;94.10;;;;;;5053412;28;20380;-74
2022/11/04 11:52:48;;;;;;;1.53;1.40;;;13.50;96.20;;;;;;5053945;28;20430;-76
2022/11/04 11:55:25;;;;;;;3.23;1.33;;;13.40;91.80;;;;;;5051249;28;20788;-74
2022/11/04 11:58:19;;;;;;;4.63;1.37;;;13.40;90.60;;;;;;5051774;28;20403;-73
2022/11/04 12:00:54;;;;;;;1.23;1.13;;;13.30;82.00;;;;;;5052458;28;20420;-74
2022/11/04 12:03:46;;;;;;;1.97;1.83;;;13.00;92.10;;;;;;5052233;28;20426;-75
2022/11/04 12:06:47;;;;;;;3.53;1.93;;;12.80;93.00;;;;;;5053065;28;20427;-76
2022/11/04 12:09:19;;;;;;;1.77;1.67;;;12.80;93.20;;;;;;5052674;28;20403;-74
2022/11/04 12:12:09;;;;;;;2.07;1.30;;;12.80;93.40;;;;;;5052702;28;20452;-73
2022/11/04 12:14:48;;;;;;;3.40;2.07;;;12.70;93.50;;;;;;5052474;28;20377;-77
2022/11/04 12:17:26;;;;;;;6.33;2.13;;;12.80;93.10;;;;;;5053410;28;20424;-74
2022/11/04 12:20:24;;;;;;;4.17;1.80;;;12.70;93.00;;;;;;5052386;28;20408;-73
2022/11/04 12:23:03;;;;;;;3.30;1.53;;;12.60;93.00;;;;;;5032962;28;20403;-73
2022/11/04 12:25:35;;;;;;;1.57;1.47;;;12.50;92.90;;;;;;5051963;28;20404;-73
2022/11/04 12:28:23;;;;;;;3.03;2.03;;;12.60;93.00;;;;;;5052560;28;20427;-73
2022/11/04 12:31:19;;;;;;;2.20;1.83;;;12.60;93.00;;;;;;5053443;28;20376;-74
2022/11/04 12:34:11;;;;;;;5.97;2.27;;;12.70;93.10;;;;;;5052445;28;20484;-77
2022/11/04 12:36:52;;;;;;;4.37;2.30;;;12.70;94.10;;;;;;5053114;28;20407;-77
2022/11/04 12:39:21;;;;;;;2.50;1.67;;;12.70;98.30;;;;;;5050788;28;20402;-76
2022/11/04 12:42:07;;;;;;;1.10;1.00;;;12.70;94.50;;;;;;5052105;28;20454;-76
2022/11/04 12:44:41;;;;;;;3.80;1.60;;;12.70;98.30;;;;;;5050974;28;20387;-74
2022/11/04 12:47:35;;;;;;;1.93;1.60;;;12.70;93.70;;;;;;5052811;28;20900;-80
2022/11/04 12:50:07;;;;;;;3.67;2.40;;;12.80;96.10;;;;;;5033202;28;20493;-72
2022/11/04 12:53:08;;;;;;;3.63;1.57;;;12.90;97.90;;;;;;5033142;28;20454;-75
2022/11/04 12:55:38;;;;;;;1.50;1.40;;;12.90;93.20;;;;;;5038943;28;20490;-74
2022/11/04 12:58:29;;;;;;;1.80;1.70;;;12.70;93.50;;;;;;5052098;28;20402;-74
2022/11/04 13:01:21;;;;;;;6.50;2.63;;;12.60;96.10;;;;;;5051689;28;20432;-76
2022/11/04 13:03:54;;;;;;;3.43;1.80;;;12.60;99.90;;;;;;5031940;28;20420;-74
2022/11/04 13:06:46;;;;;;;1.60;1.20;;;12.60;99.90;;;;;;5033027;28;20431;-74
2022/11/04 13:09:35;;;;;;;1.90;1.73;;;12.50;99.90;;;;;;5038217;28;20773;-76
2022/11/04 13:12:20;;;;;;;3.10;1.70;;;12.40;99.90;;;;;;5051977;28;20932;-74
2022/11/04 13:15:00;;;;;;;7.03;2.50;;;12.40;99.90;;;;;;5049695;28;20492;-73
2022/11/04 13:17:35;;;;;;;1.87;1.30;;;12.30;99.90;;;;;;5052780;28;20406;-76
2022/11/04 13:20:12;;;;;;;5.60;1.57;;;12.50;99.90;;;;;;5052614;28;20935;-76
2022/11/04 13:22:40;;;;;;;2.00;1.70;;;12.60;99.90;;;;;;5052535;28;20403;-77
2022/11/04 13:25:18;;;;;;;1.57;1.47;;;12.80;99.90;;;;;;5055660;28;20463;-75
2022/11/04 13:27:47;;;;;;;3.67;1.77;;;12.90;99.90;;;;;;5056751;28;20471;-73
2022/11/04 13:30:22;;;;;;;4.20;1.57;;;12.90;99.90;;;;;;5055945;28;20404;-74
2022/11/04 13:32:52;;;;;;;3.10;1.20;;;12.70;99.90;;;;;;5055771;28;20461;-73
2022/11/04 13:35:30;;;;;;;8.03;1.77;;;12.70;95.50;;;;;;5055417;28;20397;-73
2022/11/04 13:38:03;;;;;;;4.40;1.30;;;12.70;96.60;;;;;;5055075;28;20913;-74
2022/11/04 13:41:01;;;;;;;2.33;1.03;;;12.70;93.10;;;;;;5056714;28;20368;-76
2022/11/04 13:43:45;;;;;;;2.00;1.40;;;12.60;93.10;;;;;;5054239;28;20404;-77
2022/11/04 13:46:20;;;;;;;4.27;1.60;;;12.70;94.50;;;;;;5056337;28;20412;-74